createdAt,value
2023-04-16T00:01:56.269Z,6.29
2023-04-16T00:04:25.042Z,6.33
2023-04-16T00:06:53.739Z,6.30
2023-04-16T00:09:22.085Z,6.38
2023-04-16T00:11:50.535Z,6.33
2023-04-16T00:14:19.055Z,6.41
2023-04-16T00:16:49.331Z,6.41
2023-04-16T00:19:18.238Z,6.40
2023-04-16T00:21:46.648Z,6.38
2023-04-16T00:24:15.587Z,6.33
2023-04-16T00:26:45.498Z,6.36
2023-04-16T00:29:14.026Z,6.33
2023-04-16T00:31:43.251Z,6.31
2023-04-16T00:34:13.081Z,6.35
2023-04-16T00:36:41.982Z,6.34
2023-04-16T00:39:10.756Z,6.29
2023-04-16T00:41:39.989Z,6.29
2023-04-16T00:44:08.448Z,6.30
2023-04-16T00:46:38.462Z,6.29
2023-04-16T00:49:07.021Z,6.29
2023-04-16T00:51:36.992Z,6.27
2023-04-16T00:54:06.142Z,6.28
2023-04-16T00:56:36.551Z,6.32
2023-04-16T00:59:05.716Z,6.31
2023-04-16T01:01:34.354Z,6.31
2023-04-16T01:04:03.093Z,6.32
2023-04-16T01:06:32.361Z,6.34
2023-04-16T01:09:03.108Z,6.36
2023-04-16T01:11:31.389Z,6.36
2023-04-16T01:14:00.220Z,6.34
2023-04-16T01:16:28.645Z,6.33
2023-04-16T01:18:56.804Z,6.37
2023-04-16T01:21:27.451Z,6.34
2023-04-16T01:23:56.116Z,6.40
2023-04-16T01:26:24.685Z,6.34
2023-04-16T01:28:53.272Z,6.42
2023-04-16T01:31:22.398Z,6.43
2023-04-16T01:33:51.364Z,6.41
2023-04-16T01:36:19.861Z,6.42
2023-04-16T01:38:49.795Z,6.40
2023-04-16T01:41:18.211Z,6.45
2023-04-16T01:43:46.548Z,6.47
2023-04-16T01:46:19.432Z,6.44
2023-04-16T01:48:48.316Z,6.40
2023-04-16T01:51:16.725Z,6.46
2023-04-16T01:53:45.383Z,6.45
2023-04-16T01:56:15.569Z,6.46
2023-04-16T01:58:44.123Z,6.43
2023-04-16T02:01:12.446Z,6.43
2023-04-16T02:03:41.565Z,6.43
2023-04-16T02:06:10.086Z,6.40
2023-04-16T02:08:38.613Z,6.42
2023-04-16T02:11:07.160Z,6.43
2023-04-16T02:13:37.596Z,6.43
2023-04-16T02:16:06.553Z,6.45
2023-04-16T02:18:34.952Z,6.46
2023-04-16T02:21:03.642Z,6.45
2023-04-16T02:23:32.422Z,6.45
2023-04-16T02:26:01.364Z,6.47
2023-04-16T02:28:29.860Z,6.46
2023-04-16T02:31:00.547Z,6.44
2023-04-16T02:33:29.248Z,6.42
2023-04-16T02:35:57.960Z,6.38
2023-04-16T02:38:26.435Z,6.42
2023-04-16T02:40:55.241Z,6.47
2023-04-16T02:43:23.797Z,6.44
2023-04-16T02:45:52.852Z,6.48
2023-04-16T02:48:22.846Z,6.49
2023-04-16T02:50:51.880Z,6.51
2023-04-16T02:53:20.202Z,6.48
2023-04-16T02:55:54.027Z,6.47
2023-04-16T02:58:23.017Z,6.47
2023-04-16T03:00:51.939Z,6.50
2023-04-16T03:03:20.754Z,6.45
2023-04-16T03:05:50.422Z,6.45
2023-04-16T03:08:18.894Z,6.47
2023-04-16T03:10:47.511Z,6.45
2023-04-16T03:13:16.108Z,6.44
2023-04-16T03:15:50.210Z,6.50
2023-04-16T03:18:18.804Z,6.55
2023-04-16T03:20:46.949Z,6.49
2023-04-16T03:23:16.722Z,6.48
2023-04-16T03:25:47.127Z,6.49
2023-04-16T03:28:15.599Z,6.50
2023-04-16T03:30:44.126Z,6.51
2023-04-16T03:33:12.152Z,6.52
2023-04-16T03:35:40.333Z,6.49
2023-04-16T03:38:08.495Z,6.49
2023-04-16T03:40:38.123Z,6.46
2023-04-16T03:43:06.420Z,6.46
2023-04-16T03:45:34.691Z,6.53
2023-04-16T03:48:02.982Z,6.51
2023-04-16T03:50:31.554Z,6.51
2023-04-16T03:52:59.745Z,6.55
2023-04-16T03:55:28.227Z,6.54
2023-04-16T03:57:57.636Z,6.53
2023-04-16T04:00:26.050Z,6.51
2023-04-16T04:02:54.551Z,6.54
2023-04-16T04:05:22.813Z,6.58
2023-04-16T04:07:51.051Z,6.63
2023-04-16T04:10:19.159Z,6.58
2023-04-16T04:12:47.527Z,6.55
2023-04-16T04:15:16.935Z,6.59
2023-04-16T04:17:45.272Z,6.57
2023-04-16T04:20:13.933Z,6.60
2023-04-16T04:22:42.288Z,6.59
2023-04-16T04:25:12.096Z,6.64
2023-04-16T04:27:40.368Z,6.65
2023-04-16T04:30:09.798Z,6.65
2023-04-16T04:32:39.526Z,6.63
2023-04-16T04:35:08.514Z,6.72
2023-04-16T04:37:36.681Z,6.64
2023-04-16T04:40:05.060Z,6.59
2023-04-16T04:42:33.538Z,6.56
2023-04-16T04:45:01.918Z,6.56
2023-04-16T04:47:30.141Z,6.53
2023-04-16T04:50:00.006Z,6.57
2023-04-16T04:52:28.247Z,6.58
2023-04-16T04:54:56.477Z,6.62
2023-04-16T04:57:24.565Z,6.65
2023-04-16T04:59:52.602Z,6.81
2023-04-16T05:02:21.136Z,6.76
2023-04-16T05:04:49.265Z,6.78
2023-04-16T05:07:19.020Z,6.88
2023-04-16T05:09:47.199Z,6.92
2023-04-16T05:12:15.474Z,6.88
2023-04-16T05:14:43.533Z,6.86
2023-04-16T05:17:11.956Z,6.84
2023-04-16T05:19:40.222Z,6.88
2023-04-16T05:22:08.767Z,6.89
2023-04-16T05:24:38.271Z,6.91
2023-04-16T05:27:06.936Z,6.89
2023-04-16T05:29:34.996Z,6.95
2023-04-16T05:32:03.223Z,6.94
2023-04-16T05:34:31.552Z,6.92
2023-04-16T05:36:59.681Z,7.04
2023-04-16T05:39:27.833Z,7.20
2023-04-16T05:41:57.429Z,7.10
2023-04-16T05:44:25.696Z,7.10
2023-04-16T05:46:53.982Z,7.03
2023-04-16T05:49:22.355Z,7.21
2023-04-16T05:51:51.084Z,7.13
2023-04-16T05:54:19.349Z,7.11
2023-04-16T05:56:47.379Z,7.31
2023-04-16T05:59:17.046Z,7.46
2023-04-16T06:01:45.167Z,7.59
2023-04-16T06:04:13.521Z,7.62
2023-04-16T06:06:42.012Z,7.73
2023-04-16T06:09:10.668Z,7.76
2023-04-16T06:11:38.985Z,7.82
2023-04-16T06:14:07.322Z,7.79
2023-04-16T06:16:36.960Z,7.77
2023-04-16T06:19:05.466Z,7.72
2023-04-16T06:21:33.939Z,7.62
2023-04-16T06:24:02.321Z,7.51
2023-04-16T06:26:30.881Z,7.43
2023-04-16T06:28:59.060Z,7.35
2023-04-16T06:31:27.821Z,7.21
2023-04-16T06:33:58.084Z,7.27
2023-04-16T06:36:27.681Z,7.24
2023-04-16T06:38:55.978Z,7.24
2023-04-16T06:41:25.817Z,7.27
2023-04-16T06:43:54.205Z,7.16
2023-04-16T06:46:22.317Z,7.22
2023-04-16T06:48:50.624Z,7.37
2023-04-16T06:51:20.198Z,7.43
2023-04-16T06:53:48.306Z,7.52
2023-04-16T06:56:16.605Z,7.58
2023-04-16T06:58:44.945Z,7.63
2023-04-16T07:01:13.465Z,7.59
2023-04-16T07:03:41.836Z,7.61
2023-04-16T07:06:10.297Z,7.55
2023-04-16T07:08:39.776Z,7.65
2023-04-16T07:11:07.931Z,7.73
2023-04-16T07:13:36.213Z,7.62
2023-04-16T07:16:04.554Z,7.67
2023-04-16T07:18:33.534Z,7.53
2023-04-16T07:21:01.663Z,7.61
2023-04-16T07:23:29.753Z,7.58
2023-04-16T07:25:59.471Z,7.51
2023-04-16T07:28:28.268Z,7.53
2023-04-16T07:30:57.153Z,7.65
2023-04-16T07:33:26.249Z,7.65
2023-04-16T07:35:54.592Z,7.84
2023-04-16T07:38:22.791Z,7.83
2023-04-16T07:40:51.518Z,7.82
2023-04-16T07:43:21.511Z,7.75
2023-04-16T07:45:50.558Z,7.92
2023-04-16T07:48:18.949Z,7.89
2023-04-16T07:50:47.236Z,7.89
2023-04-16T07:53:15.692Z,8.08
2023-04-16T07:55:43.955Z,8.09
2023-04-16T07:58:12.149Z,8.21
2023-04-16T08:00:42.300Z,8.47
2023-04-16T08:03:10.991Z,8.46
2023-04-16T08:05:39.810Z,8.39
2023-04-16T08:08:08.387Z,8.60
2023-04-16T08:10:36.932Z,8.50
2023-04-16T08:13:06.049Z,8.71
2023-04-16T08:15:34.241Z,8.93
2023-04-16T08:18:05.939Z,8.81
2023-04-16T08:20:34.748Z,9.03
2023-04-16T08:23:02.930Z,9.01
2023-04-16T08:25:31.212Z,8.88
2023-04-16T08:27:59.390Z,8.91
2023-04-16T08:30:28.371Z,8.98
2023-04-16T08:32:57.049Z,9.01
2023-04-16T08:35:26.798Z,8.93
2023-04-16T08:37:55.028Z,9.10
2023-04-16T08:40:24.142Z,9.25
2023-04-16T08:42:55.869Z,9.26
2023-04-16T08:45:40.953Z,9.20
2023-04-16T08:48:09.532Z,9.76
2023-04-16T08:50:39.652Z,9.60
2023-04-16T08:53:08.604Z,9.66
2023-04-16T08:55:39.131Z,9.59
2023-04-16T08:58:11.673Z,9.46
2023-04-16T09:00:41.186Z,9.30
2023-04-16T09:03:10.377Z,9.60
2023-04-16T09:05:40.699Z,9.77
2023-04-16T09:08:08.986Z,10.02
2023-04-16T09:10:37.268Z,10.04
2023-04-16T09:13:05.332Z,9.95
2023-04-16T09:15:35.371Z,9.74
2023-04-16T09:18:03.706Z,9.85
2023-04-16T09:20:31.906Z,10.11
2023-04-16T09:23:01.574Z,9.99
2023-04-16T09:25:35.359Z,9.87
2023-04-16T09:28:03.690Z,9.87
2023-04-16T09:30:31.849Z,9.70
2023-04-16T09:33:16.833Z,9.76
2023-04-16T09:35:49.039Z,10.07
2023-04-16T09:38:19.210Z,10.21
2023-04-16T09:40:48.325Z,10.28
2023-04-16T09:43:18.255Z,10.19
2023-04-16T09:45:52.357Z,10.01
2023-04-16T09:48:30.793Z,10.01
2023-04-16T09:50:59.515Z,9.83
2023-04-16T09:53:30.297Z,9.68
2023-04-16T09:55:59.170Z,9.83
2023-04-16T09:58:28.006Z,10.01
2023-04-16T10:00:58.224Z,10.11
2023-04-16T10:03:33.178Z,10.16
2023-04-16T10:06:06.319Z,10.06
2023-04-16T10:08:36.449Z,9.86
2023-04-16T10:11:06.730Z,9.72
2023-04-16T10:13:35.023Z,9.49
2023-04-16T10:16:04.665Z,9.38
2023-04-16T10:18:33.109Z,9.29
2023-04-16T10:21:01.853Z,9.29
2023-04-16T10:23:30.892Z,9.37
2023-04-16T10:26:01.933Z,9.43
2023-04-16T10:28:30.815Z,9.55
2023-04-16T10:31:00.914Z,9.62
2023-04-16T10:33:31.494Z,9.49
2023-04-16T10:36:10.961Z,9.40
2023-04-16T10:38:47.731Z,9.52
2023-04-16T10:41:18.004Z,9.53
2023-04-16T10:43:47.653Z,9.47
2023-04-16T10:46:20.598Z,9.45
2023-04-16T10:48:50.646Z,9.54
2023-04-16T10:51:28.257Z,9.59
2023-04-16T10:53:57.710Z,9.33
2023-04-16T10:56:29.699Z,9.36
2023-04-16T10:58:58.064Z,9.12
2023-04-16T11:01:32.598Z,9.22
2023-04-16T11:04:03.174Z,9.45
2023-04-16T11:06:32.235Z,9.34
2023-04-16T11:09:00.469Z,9.28
2023-04-16T11:11:39.529Z,9.07
2023-04-16T11:14:09.225Z,9.00
2023-04-16T11:16:41.819Z,8.93
2023-04-16T11:19:17.127Z,8.92
2023-04-16T11:21:46.748Z,8.91
2023-04-16T11:24:14.963Z,8.91
2023-04-16T11:26:44.786Z,8.95
2023-04-16T11:29:16.345Z,8.89
2023-04-16T11:31:51.544Z,8.87
2023-04-16T11:34:21.514Z,9.12
2023-04-16T11:36:51.836Z,9.25
2023-04-16T11:39:20.873Z,9.36
2023-04-16T11:41:52.554Z,9.65
2023-04-16T11:44:22.307Z,9.52
2023-04-16T11:46:51.640Z,9.54
2023-04-16T11:49:28.900Z,9.71
2023-04-16T11:51:57.493Z,9.80
2023-04-16T11:54:26.802Z,9.81
2023-04-16T11:56:56.995Z,10.21
2023-04-16T11:59:25.290Z,10.29
2023-04-16T12:01:55.799Z,10.04
2023-04-16T12:04:26.455Z,10.02
2023-04-16T12:07:11.403Z,10.05
2023-04-16T12:09:41.031Z,10.02
2023-04-16T12:12:31.182Z,10.00
2023-04-16T12:15:03.799Z,10.20
2023-04-16T12:17:33.288Z,10.00
2023-04-16T12:20:03.022Z,9.95
2023-04-16T12:22:33.620Z,10.13
2023-04-16T12:25:04.598Z,10.12
2023-04-16T12:27:51.442Z,10.13
2023-04-16T12:30:22.752Z,9.95
2023-04-16T12:32:52.826Z,10.00
2023-04-16T12:35:32.676Z,9.69
2023-04-16T12:38:01.573Z,9.73
2023-04-16T12:40:31.019Z,9.69
2023-04-16T12:43:00.856Z,9.71
2023-04-16T12:45:29.340Z,9.68
2023-04-16T12:47:57.888Z,9.82
2023-04-16T12:50:26.203Z,9.73
2023-04-16T12:52:54.865Z,9.94
2023-04-16T12:55:22.985Z,9.97
2023-04-16T12:57:53.193Z,10.00
2023-04-16T13:00:23.328Z,9.87
2023-04-16T13:02:51.576Z,9.97
2023-04-16T13:05:20.166Z,10.24
2023-04-16T13:07:48.728Z,9.86
2023-04-16T13:10:17.777Z,9.75
2023-04-16T13:12:46.761Z,9.44
2023-04-16T13:15:15.340Z,9.59
2023-04-16T13:17:45.228Z,9.59
2023-04-16T13:20:14.120Z,9.87
2023-04-16T13:22:42.670Z,10.21
2023-04-16T13:25:11.293Z,10.34
2023-04-16T13:27:39.372Z,10.30
2023-04-16T13:30:09.031Z,10.53
2023-04-16T13:32:37.512Z,10.81
2023-04-16T13:35:07.731Z,11.09
2023-04-16T13:37:36.630Z,11.38
2023-04-16T13:40:05.338Z,11.51
2023-04-16T13:42:33.616Z,11.85
2023-04-16T13:45:01.833Z,11.43
2023-04-16T13:47:30.585Z,11.51
2023-04-16T13:49:58.784Z,11.50
2023-04-16T13:52:28.396Z,11.42
2023-04-16T13:54:58.416Z,11.21
2023-04-16T13:57:28.611Z,11.02
2023-04-16T13:59:57.499Z,10.64
2023-04-16T14:02:27.078Z,10.94
2023-04-16T14:04:55.914Z,11.63
2023-04-16T14:07:27.103Z,11.27
2023-04-16T14:09:57.064Z,11.76
2023-04-16T14:12:25.564Z,11.93
2023-04-16T14:14:58.809Z,11.80
2023-04-16T14:17:26.961Z,11.37
2023-04-16T14:19:55.077Z,11.45
2023-04-16T14:22:23.209Z,11.75
2023-04-16T14:24:51.478Z,11.94
2023-04-16T14:27:21.309Z,11.85
2023-04-16T14:29:49.599Z,11.69
2023-04-16T14:32:17.812Z,11.37
2023-04-16T14:34:46.515Z,11.63
2023-04-16T14:37:14.951Z,11.72
2023-04-16T14:39:43.550Z,11.25
2023-04-16T14:42:12.325Z,11.29
2023-04-16T14:44:42.026Z,10.92
2023-04-16T14:47:10.514Z,11.07
2023-04-16T14:49:38.785Z,10.84
2023-04-16T14:52:07.293Z,10.87
2023-04-16T14:54:35.881Z,10.99
2023-04-16T14:57:04.238Z,10.92
2023-04-16T14:59:32.887Z,11.03
2023-04-16T15:02:02.773Z,10.86
2023-04-16T15:04:31.835Z,10.79
2023-04-16T15:07:01.381Z,10.62
2023-04-16T15:09:29.684Z,10.71
2023-04-16T15:11:58.330Z,10.54
2023-04-16T15:14:26.851Z,10.57
2023-04-16T15:16:55.680Z,10.74
2023-04-16T15:19:25.553Z,10.81
2023-04-16T15:21:53.825Z,10.81
2023-04-16T15:24:23.667Z,10.76
2023-04-16T15:26:52.483Z,10.96
2023-04-16T15:29:20.839Z,11.22
2023-04-16T15:31:50.116Z,11.20
2023-04-16T15:34:18.551Z,11.26
2023-04-16T15:36:48.571Z,11.24
2023-04-16T15:39:16.809Z,11.50
2023-04-16T15:41:59.948Z,11.80
2023-04-16T15:44:29.937Z,11.68
2023-04-16T15:46:58.271Z,11.78
2023-04-16T15:49:26.726Z,11.79
2023-04-16T15:51:58.497Z,11.34
2023-04-16T15:54:26.696Z,11.24
2023-04-16T15:56:55.274Z,10.97
2023-04-16T15:59:23.444Z,10.81
2023-04-16T16:01:51.998Z,10.85
2023-04-16T16:04:23.253Z,10.70
2023-04-16T16:06:51.885Z,10.66
2023-04-16T16:09:26.412Z,10.55
2023-04-16T16:11:54.965Z,10.43
2023-04-16T16:14:24.001Z,10.31
2023-04-16T16:16:52.347Z,10.29
2023-04-16T16:19:20.864Z,10.30
2023-04-16T16:21:49.067Z,10.10
2023-04-16T16:24:17.199Z,10.06
2023-04-16T16:26:46.993Z,9.98
2023-04-16T16:29:15.689Z,10.05
2023-04-16T16:31:43.840Z,10.00
2023-04-16T16:34:20.110Z,9.94
2023-04-16T16:36:49.140Z,9.79
2023-04-16T16:39:22.854Z,9.84
2023-04-16T16:41:53.509Z,9.78
2023-04-16T16:44:22.288Z,9.84
2023-04-16T16:46:51.071Z,9.89
2023-04-16T16:49:19.287Z,9.74
2023-04-16T16:51:47.764Z,9.80
2023-04-16T16:54:16.503Z,9.87
2023-04-16T16:56:44.679Z,9.92
2023-04-16T16:59:14.511Z,9.93
2023-04-16T17:01:43.413Z,9.84
2023-04-16T17:04:11.694Z,9.87
2023-04-16T17:06:40.199Z,9.84
2023-04-16T17:09:09.080Z,9.76
2023-04-16T17:11:37.478Z,9.77
2023-04-16T17:14:05.752Z,9.74
2023-04-16T17:16:35.633Z,9.79
2023-04-16T17:19:04.305Z,9.79
2023-04-16T17:21:33.987Z,9.62
2023-04-16T17:24:02.351Z,9.79
2023-04-16T17:26:31.672Z,9.68
2023-04-16T17:28:59.796Z,9.56
2023-04-16T17:31:28.174Z,9.50
2023-04-16T17:33:59.672Z,9.54
2023-04-16T17:36:28.390Z,9.48
2023-04-16T17:38:56.660Z,9.44
2023-04-16T17:41:24.717Z,9.44
2023-04-16T17:43:53.010Z,9.41
2023-04-16T17:46:21.528Z,9.36
2023-04-16T17:48:50.042Z,9.34
2023-04-16T17:51:19.836Z,9.30
2023-04-16T17:53:48.175Z,9.31
2023-04-16T17:56:16.658Z,9.36
2023-04-16T17:58:44.927Z,9.22
2023-04-16T18:01:14.713Z,9.29
2023-04-16T18:03:44.426Z,9.23
2023-04-16T18:06:12.997Z,9.13
2023-04-16T18:08:42.859Z,9.07
2023-04-16T18:11:11.315Z,8.95
2023-04-16T18:13:39.988Z,8.84
2023-04-16T18:16:14.843Z,8.88
2023-04-16T18:18:43.309Z,8.76
2023-04-16T18:21:12.591Z,8.73
2023-04-16T18:23:42.491Z,8.76
2023-04-16T18:26:12.656Z,8.75
2023-04-16T18:28:44.279Z,8.68
2023-04-16T18:31:13.069Z,8.73
2023-04-16T18:33:55.586Z,8.69
2023-04-16T18:36:25.269Z,8.70
2023-04-16T18:39:01.042Z,8.68
2023-04-16T18:41:30.978Z,8.56
2023-04-16T18:43:59.340Z,8.58
2023-04-16T18:46:28.151Z,8.55
2023-04-16T18:48:56.502Z,8.53
2023-04-16T18:51:25.245Z,8.49
2023-04-16T18:53:55.033Z,8.48
2023-04-16T18:56:23.504Z,8.44
2023-04-16T18:58:51.605Z,8.47
2023-04-16T19:01:19.927Z,8.44
2023-04-16T19:03:48.193Z,8.44
2023-04-16T19:06:17.403Z,8.43
2023-04-16T19:08:45.982Z,8.36
2023-04-16T19:11:15.938Z,8.40
2023-04-16T19:13:44.906Z,8.40
2023-04-16T19:16:13.070Z,8.39
2023-04-16T19:18:41.447Z,8.39
2023-04-16T19:21:10.997Z,8.38
2023-04-16T19:23:39.473Z,8.37
2023-04-16T19:26:07.945Z,8.41
2023-04-16T19:28:38.861Z,8.42
2023-04-16T19:31:07.565Z,8.41
2023-04-16T19:33:35.911Z,8.39
2023-04-16T19:36:04.704Z,8.42
2023-04-16T19:38:32.940Z,8.40
2023-04-16T19:41:01.282Z,8.39
2023-04-16T19:43:30.849Z,8.38
2023-04-16T19:46:00.930Z,8.36
2023-04-16T19:48:29.238Z,8.40
2023-04-16T19:50:57.873Z,8.38
2023-04-16T19:53:26.146Z,8.42
2023-04-16T19:55:54.431Z,8.39
2023-04-16T19:58:22.888Z,8.37
2023-04-16T20:00:50.984Z,8.34
2023-04-16T20:03:20.707Z,8.36
2023-04-16T20:05:50.663Z,8.30
2023-04-16T20:08:18.953Z,8.28
2023-04-16T20:10:47.712Z,8.27
2023-04-16T20:13:18.458Z,8.28
2023-04-16T20:15:47.257Z,8.28
2023-04-16T20:18:15.619Z,8.26
2023-04-16T20:20:45.189Z,8.19
2023-04-16T20:23:13.818Z,8.19
2023-04-16T20:25:43.725Z,8.21
2023-04-16T20:28:12.328Z,8.19
2023-04-16T20:30:40.763Z,8.21
2023-04-16T20:33:09.659Z,8.17
2023-04-16T20:35:38.532Z,8.08
2023-04-16T20:38:08.245Z,8.10
2023-04-16T20:40:38.854Z,8.04
2023-04-16T20:43:10.317Z,7.89
2023-04-16T20:45:42.871Z,7.82
2023-04-16T20:48:12.006Z,7.87
2023-04-16T20:50:40.321Z,7.89
2023-04-16T20:53:10.190Z,7.83
2023-04-16T20:55:38.470Z,7.69
2023-04-16T20:58:07.049Z,7.83
2023-04-16T21:00:35.272Z,7.82
2023-04-16T21:03:03.766Z,7.81
2023-04-16T21:05:33.597Z,7.79
2023-04-16T21:08:01.795Z,7.82
2023-04-16T21:10:31.469Z,7.74
2023-04-16T21:12:59.763Z,7.70
2023-04-16T21:15:27.801Z,7.70
2023-04-16T21:17:56.048Z,7.77
2023-04-16T21:20:24.274Z,7.74
2023-04-16T21:22:56.889Z,7.71
2023-04-16T21:25:25.717Z,7.69
2023-04-16T21:27:55.808Z,7.71
2023-04-16T21:30:24.488Z,7.68
2023-04-16T21:32:52.690Z,7.67
2023-04-16T21:35:21.011Z,7.64
2023-04-16T21:37:49.224Z,7.64
2023-04-16T21:40:17.807Z,7.68
2023-04-16T21:42:45.961Z,7.68
2023-04-16T21:45:15.810Z,7.67
2023-04-16T21:47:43.978Z,7.65
2023-04-16T21:50:13.290Z,7.63
2023-04-16T21:52:46.803Z,7.67
2023-04-16T21:55:15.354Z,7.68
2023-04-16T21:57:43.363Z,7.61
2023-04-16T22:00:14.226Z,7.71
2023-04-16T22:02:44.698Z,7.69
2023-04-16T22:05:12.967Z,7.64
2023-04-16T22:07:40.962Z,7.71
2023-04-16T22:10:11.747Z,7.70
2023-04-16T22:12:41.391Z,7.66
2023-04-16T22:15:10.521Z,7.68
2023-04-16T22:17:38.842Z,7.64
2023-04-16T22:20:12.777Z,7.64
2023-04-16T22:22:41.132Z,7.63
2023-04-16T22:25:10.199Z,7.60
2023-04-16T22:27:38.861Z,7.62
2023-04-16T22:30:08.492Z,7.62
2023-04-16T22:32:36.840Z,7.63
2023-04-16T22:35:05.420Z,7.51
2023-04-16T22:37:35.170Z,7.61
2023-04-16T22:40:07.134Z,7.61
2023-04-16T22:42:35.615Z,7.62
2023-04-16T22:45:04.592Z,7.58
2023-04-16T22:47:32.728Z,7.56
2023-04-16T22:50:01.129Z,7.60
2023-04-16T22:52:29.137Z,7.56
2023-04-16T22:54:58.611Z,7.54
2023-04-16T22:57:26.635Z,7.56
2023-04-16T22:59:54.736Z,7.57
2023-04-16T23:02:23.002Z,7.43
2023-04-16T23:04:51.201Z,7.50
2023-04-16T23:07:19.296Z,7.49
2023-04-16T23:09:47.429Z,7.48
2023-04-16T23:12:16.925Z,7.51
2023-04-16T23:14:46.185Z,7.52
2023-04-16T23:17:14.722Z,7.51
2023-04-16T23:19:42.842Z,7.53
2023-04-16T23:22:11.035Z,7.55
2023-04-16T23:24:39.291Z,7.49
2023-04-16T23:27:07.437Z,7.55
2023-04-16T23:29:36.886Z,7.48
2023-04-16T23:32:05.266Z,7.50
2023-04-16T23:34:33.501Z,7.40
2023-04-16T23:37:01.640Z,7.51
2023-04-16T23:39:29.781Z,7.51
2023-04-16T23:41:58.449Z,7.46
2023-04-16T23:44:26.732Z,7.45
2023-04-16T23:46:56.635Z,7.38
2023-04-16T23:49:24.945Z,7.42
2023-04-16T23:51:53.233Z,7.38
2023-04-16T23:54:21.514Z,7.46
2023-04-16T23:56:49.783Z,7.40
2023-04-16T23:59:17.787Z,7.35
